createdAt,value
2022-08-27T00:01:22.275Z,65.20
2022-08-27T00:03:49.399Z,64.30
2022-08-27T00:06:18.692Z,64.30
2022-08-27T00:08:47.200Z,63.90
2022-08-27T00:11:13.971Z,63.90
2022-08-27T00:13:41.405Z,63.60
2022-08-27T00:16:10.332Z,64.30
2022-08-27T00:18:38.544Z,63.70
2022-08-27T00:21:06.984Z,63.80
2022-08-27T00:23:34.744Z,63.60
2022-08-27T00:26:02.183Z,63.40
2022-08-27T00:28:30.924Z,63.60
2022-08-27T00:30:57.715Z,63.50
2022-08-27T00:33:24.921Z,63.40
2022-08-27T00:35:51.913Z,63.40
2022-08-27T00:38:20.394Z,63.40
2022-08-27T00:40:47.836Z,63.40
2022-08-27T00:43:20.656Z,63.80
2022-08-27T00:45:47.694Z,63.40
2022-08-27T00:48:21.336Z,63.50
2022-08-27T00:50:51.977Z,64.10
2022-08-27T00:53:25.140Z,64.10
2022-08-27T00:56:00.198Z,64.00
2022-08-27T00:58:33.591Z,63.90
2022-08-27T01:01:01.400Z,64.00
2022-08-27T01:03:28.913Z,63.80
2022-08-27T01:05:58.693Z,63.60
2022-08-27T01:08:30.957Z,63.60
2022-08-27T01:10:59.336Z,63.80
2022-08-27T01:13:42.180Z,63.80
2022-08-27T01:16:21.828Z,63.90
2022-08-27T01:18:50.440Z,64.60
2022-08-27T01:21:26.178Z,64.20
2022-08-27T01:24:09.722Z,64.30
2022-08-27T01:26:37.059Z,64.50
2022-08-27T01:29:04.772Z,64.50
2022-08-27T01:31:32.039Z,64.50
2022-08-27T01:34:03.423Z,64.30
2022-08-27T01:36:30.624Z,64.30
2022-08-27T01:38:57.635Z,64.50
2022-08-27T01:41:25.774Z,64.50
2022-08-27T01:43:53.142Z,64.70
2022-08-27T01:46:24.503Z,64.80
2022-08-27T01:48:51.400Z,65.20
2022-08-27T01:51:18.408Z,65.30
2022-08-27T01:53:45.918Z,65.40
2022-08-27T01:56:13.003Z,65.40
2022-08-27T01:58:40.002Z,65.30
2022-08-27T02:01:11.997Z,65.40
2022-08-27T02:03:40.441Z,65.10
2022-08-27T02:06:11.177Z,65.00
2022-08-27T02:08:38.405Z,65.20
2022-08-27T02:11:05.621Z,65.20
2022-08-27T02:13:32.425Z,65.70
2022-08-27T02:15:59.291Z,66.20
2022-08-27T02:18:26.748Z,66.30
2022-08-27T02:20:56.562Z,66.10
2022-08-27T02:23:23.442Z,66.10
2022-08-27T02:25:51.337Z,66.00
2022-08-27T02:28:18.146Z,65.80
2022-08-27T02:30:45.248Z,65.90
2022-08-27T02:33:13.516Z,65.70
2022-08-27T02:35:43.087Z,65.80
2022-08-27T02:38:12.803Z,65.90
2022-08-27T02:40:40.353Z,65.90
2022-08-27T02:43:07.625Z,66.00
2022-08-27T02:45:35.580Z,66.30
2022-08-27T02:48:03.619Z,66.50
2022-08-27T02:50:30.653Z,66.50
2022-08-27T02:52:57.894Z,66.70
2022-08-27T02:55:24.728Z,66.90
2022-08-27T02:57:51.585Z,66.90
2022-08-27T03:00:20.973Z,67.00
2022-08-27T03:02:50.726Z,67.90
2022-08-27T03:05:19.076Z,67.30
2022-08-27T03:07:46.587Z,67.50
2022-08-27T03:10:15.480Z,67.70
2022-08-27T03:12:42.634Z,68.60
2022-08-27T03:15:13.365Z,68.30
2022-08-27T03:17:59.171Z,68.20
2022-08-27T03:20:26.962Z,68.50
2022-08-27T03:22:54.553Z,69.40
2022-08-27T03:25:21.798Z,68.90
2022-08-27T03:27:48.696Z,68.90
2022-08-27T03:30:18.608Z,68.80
2022-08-27T03:32:46.456Z,68.90
2022-08-27T03:35:14.268Z,69.00
2022-08-27T03:37:41.330Z,69.80
2022-08-27T03:40:09.583Z,69.80
2022-08-27T03:42:37.904Z,69.70
2022-08-27T03:45:04.948Z,69.30
2022-08-27T03:47:32.264Z,70.30
2022-08-27T03:50:00.660Z,70.20
2022-08-27T03:52:29.193Z,69.90
2022-08-27T03:54:56.376Z,70.10
2022-08-27T03:57:23.169Z,70.20
2022-08-27T03:59:49.997Z,70.30
2022-08-27T04:02:21.303Z,70.40
2022-08-27T04:04:48.610Z,70.70
2022-08-27T04:07:15.516Z,70.50
2022-08-27T04:09:43.113Z,71.20
2022-08-27T04:12:10.333Z,71.10
2022-08-27T04:14:37.329Z,70.80
2022-08-27T04:17:04.217Z,70.40
2022-08-27T04:19:33.582Z,70.40
2022-08-27T04:22:03.696Z,70.00
2022-08-27T04:24:35.563Z,69.70
2022-08-27T04:27:03.375Z,69.60
2022-08-27T04:29:31.170Z,69.70
2022-08-27T04:31:59.095Z,69.60
2022-08-27T04:34:26.120Z,69.50
2022-08-27T04:36:56.973Z,69.50
2022-08-27T04:39:24.711Z,69.50
2022-08-27T04:41:53.654Z,69.50
2022-08-27T04:44:20.930Z,69.60
2022-08-27T04:46:54.430Z,70.00
2022-08-27T04:49:21.276Z,70.40
2022-08-27T04:51:48.298Z,70.40
2022-08-27T04:54:16.048Z,71.00
2022-08-27T04:56:43.858Z,70.50
2022-08-27T04:59:11.135Z,70.50
2022-08-27T05:01:39.997Z,71.00
2022-08-27T05:04:07.544Z,70.70
2022-08-27T05:06:37.460Z,71.50
2022-08-27T05:09:06.260Z,71.10
2022-08-27T05:11:34.795Z,71.70
2022-08-27T05:14:07.563Z,71.70
2022-08-27T05:16:36.736Z,71.50
2022-08-27T05:19:06.654Z,70.90
2022-08-27T05:21:36.330Z,71.00
2022-08-27T05:24:05.030Z,71.00
2022-08-27T05:26:35.127Z,71.20
2022-08-27T05:29:03.881Z,71.90
2022-08-27T05:31:30.805Z,71.60
2022-08-27T05:33:58.225Z,71.60
2022-08-27T05:36:29.548Z,71.20
2022-08-27T05:38:58.621Z,72.10
2022-08-27T05:41:33.805Z,72.30
2022-08-27T05:44:24.108Z,72.50
2022-08-27T05:46:52.759Z,72.70
2022-08-27T05:49:19.539Z,73.00
2022-08-27T05:51:46.514Z,72.30
2022-08-27T05:54:19.317Z,72.20
2022-08-27T05:56:47.123Z,72.10
2022-08-27T05:59:34.637Z,72.40
2022-08-27T06:02:02.599Z,72.50
2022-08-27T06:04:30.130Z,71.60
2022-08-27T06:06:57.163Z,71.90
2022-08-27T06:09:26.441Z,71.80
2022-08-27T06:11:55.009Z,71.10
2022-08-27T06:14:22.086Z,70.70
2022-08-27T06:16:49.142Z,70.00
2022-08-27T06:19:16.666Z,69.80
2022-08-27T06:21:44.375Z,69.40
2022-08-27T06:24:12.977Z,69.40
2022-08-27T06:26:42.316Z,69.40
2022-08-27T06:29:09.986Z,69.70
2022-08-27T06:31:38.768Z,69.30
2022-08-27T06:34:09.762Z,69.60
2022-08-27T06:36:39.567Z,69.50
2022-08-27T11:01:31.474Z,68.40
2022-08-27T11:04:18.495Z,69.10
2022-08-27T11:07:12.266Z,69.00
2022-08-27T11:10:02.859Z,66.30
2022-08-27T11:12:35.279Z,65.70
2022-08-27T11:15:07.164Z,65.60
2022-08-27T11:17:45.888Z,63.70
2022-08-27T11:20:21.440Z,65.00
2022-08-27T11:23:09.615Z,64.80
2022-08-27T11:26:02.363Z,64.30
2022-08-27T11:29:06.887Z,64.30
2022-08-27T11:31:49.333Z,63.60
2022-08-27T11:34:24.527Z,63.20
2022-08-27T11:36:54.270Z,63.60
2022-08-27T11:39:52.204Z,62.70
2022-08-27T11:42:25.065Z,62.90
2022-08-27T11:45:04.727Z,62.60
2022-08-27T11:47:32.819Z,62.40
2022-08-27T11:50:07.942Z,62.20
2022-08-27T11:52:40.884Z,61.80
2022-08-27T11:55:33.370Z,62.20
2022-08-27T11:58:18.322Z,61.90
2022-08-27T12:00:46.821Z,61.70
2022-08-27T12:03:19.842Z,61.70
2022-08-27T12:05:54.487Z,61.60
2022-08-27T12:08:24.709Z,61.30
2022-08-27T12:11:09.346Z,61.70
2022-08-27T12:14:05.557Z,61.30
2022-08-27T12:16:59.588Z,59.70
2022-08-27T12:19:33.446Z,60.10
2022-08-27T12:23:12.441Z,60.70
2022-08-27T12:25:39.380Z,61.30
2022-08-27T12:28:09.209Z,60.80
2022-08-27T12:30:52.048Z,61.70
2022-08-27T12:33:28.206Z,61.00
2022-08-27T12:35:58.235Z,60.50
2022-08-27T12:38:36.908Z,59.90
2022-08-27T12:41:08.876Z,60.40
2022-08-27T12:43:43.614Z,60.20
2022-08-27T12:46:19.527Z,60.40
2022-08-27T12:48:58.011Z,60.60
2022-08-27T12:51:37.976Z,60.40
2022-08-27T12:54:24.529Z,60.20
2022-08-27T12:57:15.665Z,60.20
2022-08-27T13:00:19.648Z,60.30
2022-08-27T13:03:20.321Z,60.60
2022-08-27T13:05:49.948Z,60.80
2022-08-27T13:08:32.110Z,60.50
2022-08-27T13:11:19.242Z,60.10
2022-08-27T13:13:46.642Z,60.60
2022-08-27T13:16:14.091Z,60.40
2022-08-27T13:18:43.280Z,60.30
2022-08-27T13:21:32.147Z,60.10
2022-08-27T13:24:02.335Z,60.20
2022-08-27T13:26:34.675Z,60.30
2022-08-27T13:29:03.697Z,60.10
2022-08-27T13:31:32.070Z,60.30
2022-08-27T13:33:59.780Z,60.30
2022-08-27T13:36:37.901Z,60.00
2022-08-27T13:39:06.395Z,60.10
2022-08-27T13:41:35.845Z,60.00
2022-08-27T13:44:13.179Z,60.10
2022-08-27T13:46:53.391Z,60.10
2022-08-27T13:49:26.847Z,60.20
2022-08-27T13:52:16.083Z,59.70
2022-08-27T13:54:55.367Z,59.90
2022-08-27T13:57:28.264Z,59.80
2022-08-27T13:59:55.255Z,59.90
2022-08-27T14:02:33.147Z,59.80
2022-08-27T14:05:12.532Z,60.00
2022-08-27T14:07:44.756Z,60.00
2022-08-27T14:10:36.702Z,60.00
2022-08-27T14:13:06.898Z,60.00
2022-08-27T14:15:38.399Z,59.50
2022-08-27T14:18:20.216Z,58.20
2022-08-27T14:20:51.395Z,59.10
2022-08-27T14:23:18.471Z,59.00
2022-08-27T14:25:47.014Z,58.70
2022-08-27T14:28:13.924Z,58.20
2022-08-27T14:30:40.772Z,56.90
2022-08-27T14:33:10.408Z,58.20
2022-08-27T14:35:40.454Z,57.90
2022-08-27T14:38:14.869Z,58.10
2022-08-27T14:40:42.708Z,58.80
2022-08-27T14:43:09.718Z,58.70
2022-08-27T14:45:38.525Z,58.80
2022-08-27T14:48:18.679Z,58.40
2022-08-27T14:50:46.974Z,58.40
2022-08-27T14:53:14.445Z,58.60
2022-08-27T14:55:41.218Z,59.20
2022-08-27T14:58:14.829Z,60.40
2022-08-27T15:00:43.151Z,58.30
2022-08-27T15:03:13.378Z,57.90
2022-08-27T15:05:40.278Z,58.20
2022-08-27T15:08:07.740Z,58.50
2022-08-27T15:10:39.871Z,57.40
2022-08-27T15:13:06.741Z,58.20
2022-08-27T15:15:34.229Z,57.40
2022-08-27T15:18:01.533Z,58.30
2022-08-27T15:20:28.796Z,58.30
2022-08-27T15:22:55.844Z,58.40
2022-08-27T15:25:23.065Z,58.70
2022-08-27T15:27:50.191Z,58.70
2022-08-27T15:30:22.632Z,58.50
2022-08-27T15:32:49.602Z,58.60
2022-08-27T15:35:20.744Z,58.90
2022-08-27T15:37:47.710Z,59.00
2022-08-27T15:40:17.131Z,58.80
2022-08-27T15:42:44.753Z,58.80
2022-08-27T15:45:13.778Z,58.80
2022-08-27T15:47:40.655Z,58.40
2022-08-27T15:50:10.407Z,58.50
2022-08-27T15:52:41.591Z,59.00
2022-08-27T15:55:19.822Z,58.80
2022-08-27T15:57:46.681Z,58.70
2022-08-27T16:00:14.067Z,59.00
2022-08-27T16:02:41.494Z,58.60
2022-08-27T16:05:10.317Z,58.60
2022-08-27T16:07:37.249Z,58.70
2022-08-27T16:10:05.207Z,58.70
2022-08-27T16:12:31.929Z,58.70
2022-08-27T16:14:58.797Z,58.70
2022-08-27T16:17:26.562Z,58.80
2022-08-27T16:19:54.379Z,58.70
2022-08-27T16:22:21.216Z,58.80
2022-08-27T16:24:48.089Z,58.40
2022-08-27T16:27:17.427Z,58.40
2022-08-27T16:29:44.247Z,58.10
2022-08-27T16:32:17.251Z,58.40
2022-08-27T16:34:47.460Z,57.40
2022-08-27T16:37:22.725Z,57.30
2022-08-27T16:39:49.521Z,58.30
2022-08-27T16:42:16.540Z,56.90
2022-08-27T16:44:45.767Z,57.30
2022-08-27T16:47:12.644Z,57.00
2022-08-27T16:49:57.831Z,57.50
2022-08-27T16:52:25.148Z,57.80
2022-08-27T16:54:52.528Z,57.70
2022-08-27T16:57:19.341Z,57.20
2022-08-27T16:59:46.273Z,56.50
2022-08-27T17:02:32.921Z,57.10
2022-08-27T17:05:12.359Z,57.00
2022-08-27T17:07:49.255Z,56.40
2022-08-27T17:10:18.505Z,57.30
2022-08-27T17:12:47.072Z,57.70
2022-08-27T17:15:18.369Z,57.40
2022-08-27T17:17:46.136Z,56.30
2022-08-27T17:20:15.321Z,55.80
2022-08-27T17:22:42.320Z,56.40
2022-08-27T17:25:10.057Z,56.30
2022-08-27T17:27:36.943Z,55.90
2022-08-27T17:30:04.752Z,55.70
2022-08-27T17:32:34.928Z,55.80
2022-08-27T17:35:06.035Z,55.60
2022-08-27T17:37:34.153Z,55.90
2022-08-27T17:40:01.360Z,56.10
2022-08-27T17:42:29.533Z,56.00
2022-08-27T17:44:56.792Z,56.50
2022-08-27T17:47:24.972Z,56.30
2022-08-27T17:49:52.665Z,55.80
2022-08-27T17:52:20.062Z,55.80
2022-08-27T17:54:51.220Z,55.90
2022-08-27T17:57:23.320Z,55.40
2022-08-27T17:59:51.340Z,55.90
2022-08-27T18:02:22.849Z,56.30
2022-08-27T18:04:50.762Z,55.90
2022-08-27T18:07:17.977Z,56.20
2022-08-27T18:09:47.773Z,56.20
2022-08-27T18:12:22.237Z,56.20
2022-08-27T18:14:55.285Z,56.20
2022-08-27T18:17:22.630Z,56.40
2022-08-27T18:19:51.288Z,56.40
2022-08-27T18:22:18.223Z,57.10
2022-08-27T18:24:45.490Z,57.60
2022-08-27T18:27:12.836Z,57.10
2022-08-27T18:29:39.623Z,56.90
2022-08-27T18:32:06.481Z,56.90
2022-08-27T18:34:33.385Z,57.10
2022-08-27T18:37:02.725Z,56.90
2022-08-27T18:39:29.573Z,56.80
2022-08-27T18:41:56.395Z,57.40
2022-08-27T18:44:23.244Z,57.10
2022-08-27T18:46:50.044Z,57.10
2022-08-27T18:49:16.835Z,57.30
2022-08-27T18:51:47.153Z,57.50
2022-08-27T18:54:17.657Z,57.30
2022-08-27T18:56:44.836Z,57.50
2022-08-27T18:59:13.079Z,56.50
2022-08-27T19:01:40.485Z,56.90
2022-08-27T19:04:08.282Z,57.40
2022-08-27T19:06:35.188Z,57.30
2022-08-27T19:09:02.695Z,57.00
2022-08-27T19:11:30.889Z,57.00
2022-08-27T19:13:58.330Z,57.10
2022-08-27T19:16:47.379Z,57.10
2022-08-27T19:19:16.205Z,57.10
2022-08-27T19:21:46.827Z,57.20
2022-08-27T19:24:17.252Z,57.50
2022-08-27T19:26:45.434Z,56.90
2022-08-27T19:29:13.112Z,57.80
2022-08-27T19:31:40.517Z,57.30
2022-08-27T19:34:09.164Z,57.60
2022-08-27T19:36:39.698Z,57.70
2022-08-27T19:39:08.922Z,57.90
2022-08-27T19:41:36.132Z,58.00
2022-08-27T19:44:03.750Z,57.90
2022-08-27T19:46:32.811Z,57.70
2022-08-27T19:49:01.891Z,58.00
2022-08-27T19:51:29.144Z,57.80
2022-08-27T19:53:56.495Z,57.70
2022-08-27T19:56:23.377Z,58.20
2022-08-27T19:58:55.216Z,58.30
2022-08-27T20:01:23.885Z,57.80
2022-08-27T20:03:51.037Z,57.80
2022-08-27T20:06:18.346Z,57.90
2022-08-27T20:08:45.566Z,57.60
2022-08-27T20:11:17.291Z,57.90
2022-08-27T20:13:50.701Z,58.00
2022-08-27T20:16:17.882Z,58.10
2022-08-27T20:18:45.106Z,57.90
2022-08-27T20:21:11.893Z,58.00
2022-08-27T20:23:38.760Z,58.10
2022-08-27T20:26:06.167Z,58.60
2022-08-27T20:28:39.208Z,58.30
2022-08-27T20:31:07.646Z,58.80
2022-08-27T20:33:36.798Z,58.60
2022-08-27T20:36:05.404Z,59.20
2022-08-27T20:38:32.331Z,59.20
2022-08-27T20:40:59.159Z,59.10
2022-08-27T20:43:26.149Z,59.00
2022-08-27T20:45:53.159Z,59.00
2022-08-27T20:48:20.097Z,60.00
2022-08-27T20:50:47.110Z,59.20
2022-08-27T20:53:14.156Z,59.60
2022-08-27T20:55:41.098Z,59.10
2022-08-27T20:58:26.481Z,59.10
2022-08-27T21:00:54.724Z,59.20
2022-08-27T21:03:22.440Z,59.30
2022-08-27T21:05:49.611Z,59.70
2022-08-27T21:08:19.249Z,59.70
2022-08-27T21:10:49.903Z,60.00
2022-08-27T21:13:18.144Z,60.00
2022-08-27T21:15:45.111Z,60.30
2022-08-27T21:18:13.208Z,60.80
2022-08-27T21:20:40.785Z,60.10
2022-08-27T21:23:07.877Z,60.10
2022-08-27T21:25:35.437Z,60.20
2022-08-27T21:28:04.460Z,60.50
2022-08-27T21:30:31.569Z,60.50
2022-08-27T21:32:58.572Z,60.70
2022-08-27T21:35:28.329Z,60.60
2022-08-27T21:37:56.821Z,61.00
2022-08-27T21:40:25.330Z,60.80
2022-08-27T21:42:55.579Z,60.90
2022-08-27T21:45:22.633Z,61.20
2022-08-27T21:47:51.840Z,61.10
2022-08-27T21:50:20.218Z,61.30
2022-08-27T21:52:47.531Z,61.10
2022-08-27T21:55:14.901Z,61.10
2022-08-27T21:57:41.681Z,61.10
2022-08-27T22:00:37.795Z,61.20
2022-08-27T22:03:10.239Z,61.20
2022-08-27T22:05:39.445Z,61.00
2022-08-27T22:08:06.863Z,61.10
2022-08-27T22:10:33.876Z,60.80
2022-08-27T22:13:00.942Z,60.90
2022-08-27T22:15:28.164Z,60.90
2022-08-27T22:17:55.168Z,61.30
2022-08-27T22:20:22.257Z,60.80
2022-08-27T22:22:49.838Z,61.00
2022-08-27T22:25:16.859Z,61.00
2022-08-27T22:27:44.248Z,60.80
2022-08-27T22:30:12.315Z,60.80
2022-08-27T22:32:40.454Z,60.70
2022-08-27T22:35:07.926Z,60.50
2022-08-27T22:37:35.094Z,60.60
2022-08-27T22:40:02.332Z,60.90
2022-08-27T22:42:30.165Z,60.50
2022-08-27T22:44:57.052Z,60.90
2022-08-27T22:47:23.873Z,61.50
2022-08-27T22:49:52.959Z,61.30
2022-08-27T22:52:20.091Z,61.30
2022-08-27T22:54:49.990Z,61.60
2022-08-27T22:57:21.681Z,61.50
2022-08-27T22:59:48.947Z,61.80
2022-08-27T23:02:19.084Z,61.60
2022-08-27T23:04:54.942Z,61.60
2022-08-27T23:07:23.237Z,61.50
2022-08-27T23:09:50.044Z,61.20
2022-08-27T23:12:16.883Z,61.50
2022-08-27T23:14:43.766Z,61.30
2022-08-27T23:17:10.816Z,61.30
2022-08-27T23:19:37.690Z,61.30
2022-08-27T23:22:07.187Z,61.30
2022-08-27T23:24:54.970Z,61.10
2022-08-27T23:27:30.587Z,60.90
2022-08-27T23:29:58.797Z,60.70
2022-08-27T23:32:26.195Z,61.10
2022-08-27T23:34:53.646Z,60.90
2022-08-27T23:37:21.502Z,60.90
2022-08-27T23:39:48.691Z,60.80
2022-08-27T23:42:18.655Z,60.70
2022-08-27T23:44:49.112Z,60.50
2022-08-27T23:47:17.682Z,60.90
2022-08-27T23:49:44.536Z,60.90
2022-08-27T23:52:12.511Z,60.90
2022-08-27T23:54:40.255Z,61.20
2022-08-27T23:57:07.380Z,61.10
2022-08-27T23:59:34.423Z,61.10
